Metar/TAF

[source: ADDS]
METAR
KSNA 210253Z 23007KT 10SM FEW013 FEW060 FEW250 23/17 A2992 RMK AO2 SLP130 T02280172 55000 =
TAF
KSNA 202337Z 2100/2124 20011KT P6SM FEW016 FEW060 FEW250 FM210200 VRB04KT P6SM FEW016 FEW060 FEW250 FM211000 VRB03KT P6SM BKN010 FM211500 VRB04KT P6SM SCT012 FM212000 21010KT P6SM FEW250 =
SR / SS: 12:56 / 02:59 UTC ( 2018-07-20)

Sectional

Sectional Chart - Southern California

Airport Diagram

airport diagram - John Wayne Airport, Orange County

IFR Chart

IFR Chart - Southern California